sensor_id;sensor_type;location;lat;lon;timestamp;P1;durP1;ratioP1;P2;durP2;ratioP2
5989;SDS011;14149;53.562;10.032;2022-08-04T00:01:03;12.30;;;5.37;;
5989;SDS011;14149;53.562;10.032;2022-08-04T00:03:37;11.23;;;4.13;;
5989;SDS011;14149;53.562;10.032;2022-08-04T00:06:16;11.90;;;4.70;;
5989;SDS011;14149;53.562;10.032;2022-08-04T00:08:44;9.83;;;4.90;;
5989;SDS011;14149;53.562;10.032;2022-08-04T00:11:13;16.17;;;4.67;;
5989;SDS011;14149;53.562;10.032;2022-08-04T00:13:41;9.13;;;4.30;;
5989;SDS011;14149;53.562;10.032;2022-08-04T00:16:08;11.53;;;4.90;;
5989;SDS011;14149;53.562;10.032;2022-08-04T00:18:43;8.50;;;4.30;;
5989;SDS011;14149;53.562;10.032;2022-08-04T00:21:14;12.53;;;4.83;;
5989;SDS011;14149;53.562;10.032;2022-08-04T00:23:42;10.93;;;4.97;;
5989;SDS011;14149;53.562;10.032;2022-08-04T00:26:09;9.40;;;4.23;;
5989;SDS011;14149;53.562;10.032;2022-08-04T00:28:35;10.23;;;4.60;;
5989;SDS011;14149;53.562;10.032;2022-08-04T00:31:08;10.63;;;4.80;;
5989;SDS011;14149;53.562;10.032;2022-08-04T00:33:35;9.90;;;4.50;;
5989;SDS011;14149;53.562;10.032;2022-08-04T00:36:02;13.27;;;4.80;;
5989;SDS011;14149;53.562;10.032;2022-08-04T00:38:28;14.10;;;4.43;;
5989;SDS011;14149;53.562;10.032;2022-08-04T00:41:00;10.97;;;5.07;;
5989;SDS011;14149;53.562;10.032;2022-08-04T00:43:40;10.63;;;4.43;;
5989;SDS011;14149;53.562;10.032;2022-08-04T00:48:53;14.67;;;4.90;;
5989;SDS011;14149;53.562;10.032;2022-08-04T00:59:14;9.83;;;3.97;;
5989;SDS011;14149;53.562;10.032;2022-08-04T01:04:29;12.20;;;4.20;;
5989;SDS011;14149;53.562;10.032;2022-08-04T01:17:24;10.10;;;4.13;;
5989;SDS011;14149;53.562;10.032;2022-08-04T01:20:00;9.20;;;4.43;;
5989;SDS011;14149;53.562;10.032;2022-08-04T01:30:04;9.63;;;4.43;;
5989;SDS011;14149;53.562;10.032;2022-08-04T01:32:31;11.10;;;4.87;;
5989;SDS011;14149;53.562;10.032;2022-08-04T01:35:04;9.40;;;4.20;;
5989;SDS011;14149;53.562;10.032;2022-08-04T01:37:38;12.23;;;4.53;;
5989;SDS011;14149;53.562;10.032;2022-08-04T01:40:05;9.73;;;4.10;;
5989;SDS011;14149;53.562;10.032;2022-08-04T01:42:32;7.93;;;4.10;;
5989;SDS011;14149;53.562;10.032;2022-08-04T01:45:00;10.13;;;4.00;;
5989;SDS011;14149;53.562;10.032;2022-08-04T01:47:28;10.60;;;4.40;;
5989;SDS011;14149;53.562;10.032;2022-08-04T01:49:57;9.33;;;4.13;;
5989;SDS011;14149;53.562;10.032;2022-08-04T01:52:23;11.43;;;4.27;;
5989;SDS011;14149;53.562;10.032;2022-08-04T01:54:51;10.73;;;4.30;;
5989;SDS011;14149;53.562;10.032;2022-08-04T01:57:17;12.27;;;4.20;;
5989;SDS011;14149;53.562;10.032;2022-08-04T01:59:44;8.73;;;4.30;;
5989;SDS011;14149;53.562;10.032;2022-08-04T02:02:10;8.50;;;3.53;;
5989;SDS011;14149;53.562;10.032;2022-08-04T02:04:36;10.90;;;4.80;;
5989;SDS011;14149;53.562;10.032;2022-08-04T02:07:46;9.67;;;4.40;;
5989;SDS011;14149;53.562;10.032;2022-08-04T02:09:56;10.10;;;4.50;;
5989;SDS011;14149;53.562;10.032;2022-08-04T02:18:11;9.10;;;4.47;;
5989;SDS011;14149;53.562;10.032;2022-08-04T02:20:45;9.23;;;4.27;;
5989;SDS011;14149;53.562;10.032;2022-08-04T02:23:15;11.83;;;4.33;;
5989;SDS011;14149;53.562;10.032;2022-08-04T02:25:47;10.60;;;4.10;;
5989;SDS011;14149;53.562;10.032;2022-08-04T02:33:36;9.13;;;4.30;;
5989;SDS011;14149;53.562;10.032;2022-08-04T02:36:03;7.70;;;3.93;;
5989;SDS011;14149;53.562;10.032;2022-08-04T02:41:14;7.90;;;4.50;;
5989;SDS011;14149;53.562;10.032;2022-08-04T02:43:42;8.77;;;4.60;;
5989;SDS011;14149;53.562;10.032;2022-08-04T02:46:08;11.20;;;4.93;;
5989;SDS011;14149;53.562;10.032;2022-08-04T02:48:35;9.30;;;4.50;;
5989;SDS011;14149;53.562;10.032;2022-08-04T02:51:03;8.60;;;4.23;;
5989;SDS011;14149;53.562;10.032;2022-08-04T02:53:30;11.80;;;4.60;;
5989;SDS011;14149;53.562;10.032;2022-08-04T02:55:57;8.83;;;4.23;;
5989;SDS011;14149;53.562;10.032;2022-08-04T02:58:25;10.20;;;4.73;;
5989;SDS011;14149;53.562;10.032;2022-08-04T03:00:55;10.77;;;4.27;;
5989;SDS011;14149;53.562;10.032;2022-08-04T03:03:40;10.37;;;4.13;;
5989;SDS011;14149;53.562;10.032;2022-08-04T03:08:50;15.70;;;4.67;;
5989;SDS011;14149;53.562;10.032;2022-08-04T03:14:49;9.60;;;5.13;;
5989;SDS011;14149;53.562;10.032;2022-08-04T03:47:31;9.00;;;4.40;;
5989;SDS011;14149;53.562;10.032;2022-08-04T03:53:11;11.23;;;4.67;;
5989;SDS011;14149;53.562;10.032;2022-08-04T03:55:43;10.03;;;4.90;;
5989;SDS011;14149;53.562;10.032;2022-08-04T04:03:27;11.00;;;4.80;;
5989;SDS011;14149;53.562;10.032;2022-08-04T04:33:49;10.83;;;4.90;;
5989;SDS011;14149;53.562;10.032;2022-08-04T04:36:19;7.63;;;4.20;;
5989;SDS011;14149;53.562;10.032;2022-08-04T04:51:54;11.23;;;5.40;;
5989;SDS011;14149;53.562;10.032;2022-08-04T04:57:06;16.73;;;5.67;;
5989;SDS011;14149;53.562;10.032;2022-08-04T04:59:35;14.37;;;5.73;;
5989;SDS011;14149;53.562;10.032;2022-08-04T05:02:10;12.60;;;4.97;;
5989;SDS011;14149;53.562;10.032;2022-08-04T05:12:30;11.80;;;4.53;;
5989;SDS011;14149;53.562;10.032;2022-08-04T05:14:54;12.20;;;4.90;;
5989;SDS011;14149;53.562;10.032;2022-08-04T05:17:25;9.57;;;4.83;;
5989;SDS011;14149;53.562;10.032;2022-08-04T05:19:54;17.00;;;4.77;;
5989;SDS011;14149;53.562;10.032;2022-08-04T05:25:25;11.30;;;5.20;;
5989;SDS011;14149;53.562;10.032;2022-08-04T05:27:56;14.43;;;5.10;;
5989;SDS011;14149;53.562;10.032;2022-08-04T05:30:23;15.73;;;5.47;;
5989;SDS011;14149;53.562;10.032;2022-08-04T05:32:55;11.70;;;5.00;;
5989;SDS011;14149;53.562;10.032;2022-08-04T05:35:26;12.50;;;5.40;;
5989;SDS011;14149;53.562;10.032;2022-08-04T05:37:53;10.87;;;5.53;;
5989;SDS011;14149;53.562;10.032;2022-08-04T05:40:21;12.63;;;5.93;;
5989;SDS011;14149;53.562;10.032;2022-08-04T05:42:49;14.50;;;5.97;;
5989;SDS011;14149;53.562;10.032;2022-08-04T05:45:16;11.27;;;6.27;;
5989;SDS011;14149;53.562;10.032;2022-08-04T05:47:42;10.30;;;5.87;;
5989;SDS011;14149;53.562;10.032;2022-08-04T05:50:09;15.10;;;6.50;;
5989;SDS011;14149;53.562;10.032;2022-08-04T05:52:35;12.67;;;5.60;;
5989;SDS011;14149;53.562;10.032;2022-08-04T05:55:02;15.20;;;5.73;;
5989;SDS011;14149;53.562;10.032;2022-08-04T05:57:29;15.10;;;5.43;;
5989;SDS011;14149;53.562;10.032;2022-08-04T05:59:56;11.13;;;5.70;;
5989;SDS011;14149;53.562;10.032;2022-08-04T06:02:23;14.53;;;6.03;;
5989;SDS011;14149;53.562;10.032;2022-08-04T06:04:50;13.13;;;5.40;;
5989;SDS011;14149;53.562;10.032;2022-08-04T06:07:17;14.40;;;5.67;;
5989;SDS011;14149;53.562;10.032;2022-08-04T06:09:43;10.57;;;4.80;;
5989;SDS011;14149;53.562;10.032;2022-08-04T06:12:10;9.90;;;4.37;;
5989;SDS011;14149;53.562;10.032;2022-08-04T06:14:41;10.50;;;4.63;;
5989;SDS011;14149;53.562;10.032;2022-08-04T06:17:08;16.07;;;4.80;;
5989;SDS011;14149;53.562;10.032;2022-08-04T06:19:35;10.67;;;5.10;;
5989;SDS011;14149;53.562;10.032;2022-08-04T06:22:02;17.60;;;4.77;;
5989;SDS011;14149;53.562;10.032;2022-08-04T06:24:28;9.00;;;4.90;;
5989;SDS011;14149;53.562;10.032;2022-08-04T06:26:55;13.30;;;5.23;;
5989;SDS011;14149;53.562;10.032;2022-08-04T06:29:22;11.70;;;5.07;;
5989;SDS011;14149;53.562;10.032;2022-08-04T06:31:58;10.43;;;5.53;;
5989;SDS011;14149;53.562;10.032;2022-08-04T06:34:26;9.50;;;3.83;;
5989;SDS011;14149;53.562;10.032;2022-08-04T06:36:53;10.30;;;4.63;;
5989;SDS011;14149;53.562;10.032;2022-08-04T06:39:20;10.90;;;4.83;;
5989;SDS011;14149;53.562;10.032;2022-08-04T06:41:47;10.60;;;5.50;;
5989;SDS011;14149;53.562;10.032;2022-08-04T06:44:14;9.27;;;4.67;;
5989;SDS011;14149;53.562;10.032;2022-08-04T06:46:40;13.67;;;4.57;;
5989;SDS011;14149;53.562;10.032;2022-08-04T06:49:08;9.70;;;4.73;;
5989;SDS011;14149;53.562;10.032;2022-08-04T06:51:35;11.70;;;5.07;;
5989;SDS011;14149;53.562;10.032;2022-08-04T06:54:02;11.30;;;4.40;;
5989;SDS011;14149;53.562;10.032;2022-08-04T06:56:28;9.20;;;4.70;;
5989;SDS011;14149;53.562;10.032;2022-08-04T06:58:55;12.90;;;4.37;;
5989;SDS011;14149;53.562;10.032;2022-08-04T07:01:22;15.03;;;5.30;;
5989;SDS011;14149;53.562;10.032;2022-08-04T07:03:49;15.50;;;5.17;;
5989;SDS011;14149;53.562;10.032;2022-08-04T07:06:16;11.10;;;4.83;;
5989;SDS011;14149;53.562;10.032;2022-08-04T07:08:43;10.87;;;4.77;;
5989;SDS011;14149;53.562;10.032;2022-08-04T07:11:09;13.70;;;5.40;;
5989;SDS011;14149;53.562;10.032;2022-08-04T07:13:36;15.07;;;4.70;;
5989;SDS011;14149;53.562;10.032;2022-08-04T07:16:03;12.50;;;4.83;;
5989;SDS011;14149;53.562;10.032;2022-08-04T07:18:30;11.27;;;5.10;;
5989;SDS011;14149;53.562;10.032;2022-08-04T07:20:56;17.17;;;5.27;;
5989;SDS011;14149;53.562;10.032;2022-08-04T07:23:23;10.93;;;5.27;;
5989;SDS011;14149;53.562;10.032;2022-08-04T07:25:53;19.13;;;5.37;;
5989;SDS011;14149;53.562;10.032;2022-08-04T07:28:20;14.13;;;5.43;;
5989;SDS011;14149;53.562;10.032;2022-08-04T07:30:47;14.57;;;7.73;;
5989;SDS011;14149;53.562;10.032;2022-08-04T07:33:14;11.10;;;5.17;;
5989;SDS011;14149;53.562;10.032;2022-08-04T07:35:41;14.60;;;4.70;;
5989;SDS011;14149;53.562;10.032;2022-08-04T07:38:07;9.00;;;4.20;;
5989;SDS011;14149;53.562;10.032;2022-08-04T07:40:35;16.03;;;4.47;;
5989;SDS011;14149;53.562;10.032;2022-08-04T07:43:02;11.00;;;4.53;;
5989;SDS011;14149;53.562;10.032;2022-08-04T07:45:28;13.77;;;5.10;;
5989;SDS011;14149;53.562;10.032;2022-08-04T07:47:54;13.07;;;4.00;;
5989;SDS011;14149;53.562;10.032;2022-08-04T07:50:21;14.23;;;4.27;;
5989;SDS011;14149;53.562;10.032;2022-08-04T07:52:47;10.63;;;4.40;;
5989;SDS011;14149;53.562;10.032;2022-08-04T07:55:13;14.63;;;6.37;;
5989;SDS011;14149;53.562;10.032;2022-08-04T07:57:40;10.80;;;4.50;;
5989;SDS011;14149;53.562;10.032;2022-08-04T08:00:06;24.63;;;5.20;;
5989;SDS011;14149;53.562;10.032;2022-08-04T08:02:33;12.40;;;4.40;;
5989;SDS011;14149;53.562;10.032;2022-08-04T08:04:59;15.83;;;5.27;;
5989;SDS011;14149;53.562;10.032;2022-08-04T08:07:26;12.80;;;5.00;;
5989;SDS011;14149;53.562;10.032;2022-08-04T08:09:52;10.50;;;4.30;;
5989;SDS011;14149;53.562;10.032;2022-08-04T08:12:18;10.27;;;4.10;;
5989;SDS011;14149;53.562;10.032;2022-08-04T08:14:44;9.50;;;4.30;;
5989;SDS011;14149;53.562;10.032;2022-08-04T08:17:11;11.83;;;4.13;;
5989;SDS011;14149;53.562;10.032;2022-08-04T08:19:37;13.30;;;4.60;;
5989;SDS011;14149;53.562;10.032;2022-08-04T08:22:03;15.47;;;4.30;;
5989;SDS011;14149;53.562;10.032;2022-08-04T08:24:31;10.57;;;3.97;;
5989;SDS011;14149;53.562;10.032;2022-08-04T08:26:57;13.50;;;4.20;;
5989;SDS011;14149;53.562;10.032;2022-08-04T08:29:24;13.60;;;4.10;;
5989;SDS011;14149;53.562;10.032;2022-08-04T08:31:51;10.27;;;4.07;;
5989;SDS011;14149;53.562;10.032;2022-08-04T08:34:17;8.93;;;4.07;;
5989;SDS011;14149;53.562;10.032;2022-08-04T08:36:52;11.17;;;4.03;;
5989;SDS011;14149;53.562;10.032;2022-08-04T08:39:22;13.70;;;4.20;;
5989;SDS011;14149;53.562;10.032;2022-08-04T08:42:08;11.10;;;4.23;;
5989;SDS011;14149;53.562;10.032;2022-08-04T08:47:45;9.20;;;3.90;;
5989;SDS011;14149;53.562;10.032;2022-08-04T09:00:32;12.37;;;3.70;;
5989;SDS011;14149;53.562;10.032;2022-08-04T09:11:08;11.93;;;4.20;;
5989;SDS011;14149;53.562;10.032;2022-08-04T09:13:43;9.93;;;3.43;;
5989;SDS011;14149;53.562;10.032;2022-08-04T09:16:18;11.73;;;4.20;;
5989;SDS011;14149;53.562;10.032;2022-08-04T09:18:46;8.93;;;3.90;;
5989;SDS011;14149;53.562;10.032;2022-08-04T09:24:11;10.57;;;4.13;;
5989;SDS011;14149;53.562;10.032;2022-08-04T09:26:49;9.03;;;4.53;;
5989;SDS011;14149;53.562;10.032;2022-08-04T09:29:25;10.47;;;4.40;;
5989;SDS011;14149;53.562;10.032;2022-08-04T09:31:54;9.33;;;3.97;;
5989;SDS011;14149;53.562;10.032;2022-08-04T09:34:42;8.33;;;3.40;;
5989;SDS011;14149;53.562;10.032;2022-08-04T09:40:13;8.03;;;4.00;;
5989;SDS011;14149;53.562;10.032;2022-08-04T09:42:49;8.63;;;4.00;;
5989;SDS011;14149;53.562;10.032;2022-08-04T09:45:23;13.20;;;4.30;;
5989;SDS011;14149;53.562;10.032;2022-08-04T09:47:59;8.30;;;4.10;;
5989;SDS011;14149;53.562;10.032;2022-08-04T09:50:34;10.00;;;4.30;;
5989;SDS011;14149;53.562;10.032;2022-08-04T09:58:08;8.40;;;4.47;;
5989;SDS011;14149;53.562;10.032;2022-08-04T10:00:50;7.57;;;3.70;;
5989;SDS011;14149;53.562;10.032;2022-08-04T10:03:18;8.60;;;4.27;;
5989;SDS011;14149;53.562;10.032;2022-08-04T10:08:23;8.37;;;4.20;;
5989;SDS011;14149;53.562;10.032;2022-08-04T10:11:08;8.90;;;4.17;;
5989;SDS011;14149;53.562;10.032;2022-08-04T10:24:26;8.57;;;4.37;;
5989;SDS011;14149;53.562;10.032;2022-08-04T10:29:15;8.00;;;3.97;;
5989;SDS011;14149;53.562;10.032;2022-08-04T10:31:44;7.83;;;4.20;;
5989;SDS011;14149;53.562;10.032;2022-08-04T10:34:12;7.97;;;4.53;;
5989;SDS011;14149;53.562;10.032;2022-08-04T10:36:45;8.20;;;4.47;;
5989;SDS011;14149;53.562;10.032;2022-08-04T10:39:17;8.63;;;4.50;;
5989;SDS011;14149;53.562;10.032;2022-08-04T10:41:53;9.20;;;4.90;;
5989;SDS011;14149;53.562;10.032;2022-08-04T10:44:39;10.37;;;4.70;;
5989;SDS011;14149;53.562;10.032;2022-08-04T10:47:13;8.10;;;4.23;;
5989;SDS011;14149;53.562;10.032;2022-08-04T10:49:44;7.93;;;4.17;;
5989;SDS011;14149;53.562;10.032;2022-08-04T10:52:18;7.70;;;4.63;;
5989;SDS011;14149;53.562;10.032;2022-08-04T10:59:52;7.40;;;4.20;;
5989;SDS011;14149;53.562;10.032;2022-08-04T11:07:49;6.80;;;3.80;;
5989;SDS011;14149;53.562;10.032;2022-08-04T11:10:16;10.40;;;3.57;;
5989;SDS011;14149;53.562;10.032;2022-08-04T11:12:43;8.53;;;4.10;;
5989;SDS011;14149;53.562;10.032;2022-08-04T11:15:12;8.57;;;4.43;;
5989;SDS011;14149;53.562;10.032;2022-08-04T11:17:42;9.17;;;4.40;;
5989;SDS011;14149;53.562;10.032;2022-08-04T11:23:07;8.40;;;4.50;;
5989;SDS011;14149;53.562;10.032;2022-08-04T11:25:43;7.17;;;3.83;;
5989;SDS011;14149;53.562;10.032;2022-08-04T11:30:58;6.73;;;3.70;;
5989;SDS011;14149;53.562;10.032;2022-08-04T11:33:33;7.47;;;4.53;;
5989;SDS011;14149;53.562;10.032;2022-08-04T11:36:13;10.10;;;4.43;;
5989;SDS011;14149;53.562;10.032;2022-08-04T11:41:11;12.03;;;6.30;;
5989;SDS011;14149;53.562;10.032;2022-08-04T11:43:56;12.73;;;5.70;;
5989;SDS011;14149;53.562;10.032;2022-08-04T11:49:35;7.00;;;4.20;;
5989;SDS011;14149;53.562;10.032;2022-08-04T11:57:11;6.90;;;4.20;;
5989;SDS011;14149;53.562;10.032;2022-08-04T11:59:38;7.10;;;4.40;;
5989;SDS011;14149;53.562;10.032;2022-08-04T12:04:57;8.20;;;4.00;;
5989;SDS011;14149;53.562;10.032;2022-08-04T12:12:41;7.73;;;4.13;;
5989;SDS011;14149;53.562;10.032;2022-08-04T12:17:45;7.60;;;4.10;;
5989;SDS011;14149;53.562;10.032;2022-08-04T12:20:15;8.43;;;4.60;;
5989;SDS011;14149;53.562;10.032;2022-08-04T12:22:46;6.67;;;4.00;;
5989;SDS011;14149;53.562;10.032;2022-08-04T12:25:15;7.97;;;4.03;;
5989;SDS011;14149;53.562;10.032;2022-08-04T12:27:52;6.77;;;3.90;;
5989;SDS011;14149;53.562;10.032;2022-08-04T12:30:18;7.20;;;4.23;;
5989;SDS011;14149;53.562;10.032;2022-08-04T12:32:47;7.47;;;3.97;;
5989;SDS011;14149;53.562;10.032;2022-08-04T12:37:54;7.63;;;4.10;;
5989;SDS011;14149;53.562;10.032;2022-08-04T12:40:26;9.50;;;4.97;;
5989;SDS011;14149;53.562;10.032;2022-08-04T12:43:00;7.90;;;4.90;;
5989;SDS011;14149;53.562;10.032;2022-08-04T12:45:27;8.83;;;4.07;;
5989;SDS011;14149;53.562;10.032;2022-08-04T12:47:55;6.70;;;3.77;;
5989;SDS011;14149;53.562;10.032;2022-08-04T12:50:22;9.30;;;4.27;;
5989;SDS011;14149;53.562;10.032;2022-08-04T12:52:49;7.23;;;4.20;;
5989;SDS011;14149;53.562;10.032;2022-08-04T12:55:17;9.23;;;4.40;;
5989;SDS011;14149;53.562;10.032;2022-08-04T12:57:45;8.30;;;4.10;;
5989;SDS011;14149;53.562;10.032;2022-08-04T13:00:21;11.03;;;4.77;;
5989;SDS011;14149;53.562;10.032;2022-08-04T13:02:48;7.20;;;4.37;;
5989;SDS011;14149;53.562;10.032;2022-08-04T13:05:14;9.33;;;4.27;;
5989;SDS011;14149;53.562;10.032;2022-08-04T13:07:41;8.20;;;4.30;;
5989;SDS011;14149;53.562;10.032;2022-08-04T13:10:13;8.90;;;4.30;;
5989;SDS011;14149;53.562;10.032;2022-08-04T13:12:39;7.90;;;4.40;;
5989;SDS011;14149;53.562;10.032;2022-08-04T13:15:16;7.97;;;4.50;;
5989;SDS011;14149;53.562;10.032;2022-08-04T13:17:50;7.00;;;4.10;;
5989;SDS011;14149;53.562;10.032;2022-08-04T13:23:11;8.80;;;4.20;;
5989;SDS011;14149;53.562;10.032;2022-08-04T13:25:44;7.60;;;4.70;;
5989;SDS011;14149;53.562;10.032;2022-08-04T13:28:12;8.00;;;4.23;;
5989;SDS011;14149;53.562;10.032;2022-08-04T13:30:40;6.90;;;4.23;;
5989;SDS011;14149;53.562;10.032;2022-08-04T13:33:08;16.63;;;5.23;;
5989;SDS011;14149;53.562;10.032;2022-08-04T13:35:40;7.90;;;4.10;;
5989;SDS011;14149;53.562;10.032;2022-08-04T13:38:07;7.10;;;4.07;;
5989;SDS011;14149;53.562;10.032;2022-08-04T13:40:36;9.73;;;4.47;;
5989;SDS011;14149;53.562;10.032;2022-08-04T13:43:04;8.30;;;3.97;;
5989;SDS011;14149;53.562;10.032;2022-08-04T13:45:31;7.67;;;4.27;;
5989;SDS011;14149;53.562;10.032;2022-08-04T13:47:58;7.20;;;4.30;;
5989;SDS011;14149;53.562;10.032;2022-08-04T13:50:26;8.23;;;4.23;;
5989;SDS011;14149;53.562;10.032;2022-08-04T13:52:57;6.90;;;4.00;;
5989;SDS011;14149;53.562;10.032;2022-08-04T13:57:57;7.67;;;4.20;;
5989;SDS011;14149;53.562;10.032;2022-08-04T14:00:24;7.60;;;4.07;;
5989;SDS011;14149;53.562;10.032;2022-08-04T14:03:03;8.73;;;4.73;;
5989;SDS011;14149;53.562;10.032;2022-08-04T14:05:30;8.27;;;4.63;;
5989;SDS011;14149;53.562;10.032;2022-08-04T14:07:59;7.67;;;4.07;;
5989;SDS011;14149;53.562;10.032;2022-08-04T14:10:30;7.53;;;4.13;;
5989;SDS011;14149;53.562;10.032;2022-08-04T14:12:56;8.60;;;3.90;;
5989;SDS011;14149;53.562;10.032;2022-08-04T14:15:30;9.07;;;4.63;;
5989;SDS011;14149;53.562;10.032;2022-08-04T14:23:37;7.23;;;4.37;;
5989;SDS011;14149;53.562;10.032;2022-08-04T14:28:48;7.60;;;4.30;;
5989;SDS011;14149;53.562;10.032;2022-08-04T14:31:18;7.70;;;4.30;;
5989;SDS011;14149;53.562;10.032;2022-08-04T14:33:45;6.70;;;3.60;;
5989;SDS011;14149;53.562;10.032;2022-08-04T14:36:12;6.70;;;3.90;;
5989;SDS011;14149;53.562;10.032;2022-08-04T14:38:54;7.80;;;3.63;;
5989;SDS011;14149;53.562;10.032;2022-08-04T14:41:24;8.03;;;4.30;;
5989;SDS011;14149;53.562;10.032;2022-08-04T14:46:16;7.87;;;4.40;;
5989;SDS011;14149;53.562;10.032;2022-08-04T14:48:59;7.77;;;4.90;;
5989;SDS011;14149;53.562;10.032;2022-08-04T14:51:25;8.40;;;4.57;;
5989;SDS011;14149;53.562;10.032;2022-08-04T14:53:51;7.40;;;4.33;;
5989;SDS011;14149;53.562;10.032;2022-08-04T14:56:18;11.30;;;4.80;;
5989;SDS011;14149;53.562;10.032;2022-08-04T14:58:44;9.10;;;5.00;;
5989;SDS011;14149;53.562;10.032;2022-08-04T15:01:11;7.67;;;4.83;;
5989;SDS011;14149;53.562;10.032;2022-08-04T15:03:42;10.93;;;5.80;;
5989;SDS011;14149;53.562;10.032;2022-08-04T15:06:08;11.30;;;4.90;;
5989;SDS011;14149;53.562;10.032;2022-08-04T15:08:34;11.03;;;5.50;;
5989;SDS011;14149;53.562;10.032;2022-08-04T15:11:00;9.63;;;5.07;;
5989;SDS011;14149;53.562;10.032;2022-08-04T15:13:27;13.53;;;6.00;;
5989;SDS011;14149;53.562;10.032;2022-08-04T15:15:53;12.97;;;6.33;;
5989;SDS011;14149;53.562;10.032;2022-08-04T15:18:19;10.40;;;4.93;;
5989;SDS011;14149;53.562;10.032;2022-08-04T15:20:45;10.90;;;5.10;;
5989;SDS011;14149;53.562;10.032;2022-08-04T15:23:12;11.90;;;5.20;;
5989;SDS011;14149;53.562;10.032;2022-08-04T15:25:41;10.67;;;4.50;;
5989;SDS011;14149;53.562;10.032;2022-08-04T15:28:14;15.00;;;5.57;;
5989;SDS011;14149;53.562;10.032;2022-08-04T15:30:41;9.20;;;4.77;;
5989;SDS011;14149;53.562;10.032;2022-08-04T15:33:08;13.73;;;5.17;;
5989;SDS011;14149;53.562;10.032;2022-08-04T15:35:35;14.40;;;5.10;;
5989;SDS011;14149;53.562;10.032;2022-08-04T15:38:15;11.20;;;5.00;;
5989;SDS011;14149;53.562;10.032;2022-08-04T15:40:47;9.43;;;5.00;;
5989;SDS011;14149;53.562;10.032;2022-08-04T15:45:57;10.70;;;5.00;;
5989;SDS011;14149;53.562;10.032;2022-08-04T15:48:29;14.10;;;5.13;;
5989;SDS011;14149;53.562;10.032;2022-08-04T15:53:22;15.03;;;5.57;;
5989;SDS011;14149;53.562;10.032;2022-08-04T15:55:48;11.03;;;5.10;;
5989;SDS011;14149;53.562;10.032;2022-08-04T15:58:16;12.07;;;5.40;;
5989;SDS011;14149;53.562;10.032;2022-08-04T16:05:59;14.30;;;5.93;;
5989;SDS011;14149;53.562;10.032;2022-08-04T16:08:25;11.10;;;5.20;;
5989;SDS011;14149;53.562;10.032;2022-08-04T16:10:52;13.80;;;5.63;;
5989;SDS011;14149;53.562;10.032;2022-08-04T16:13:19;9.73;;;4.47;;
5989;SDS011;14149;53.562;10.032;2022-08-04T16:15:47;15.13;;;5.97;;
5989;SDS011;14149;53.562;10.032;2022-08-04T16:20:55;12.20;;;5.10;;
5989;SDS011;14149;53.562;10.032;2022-08-04T16:23:37;12.90;;;6.70;;
5989;SDS011;14149;53.562;10.032;2022-08-04T16:26:07;12.43;;;4.97;;
5989;SDS011;14149;53.562;10.032;2022-08-04T16:31:01;12.97;;;6.80;;
5989;SDS011;14149;53.562;10.032;2022-08-04T16:33:28;12.93;;;6.07;;
5989;SDS011;14149;53.562;10.032;2022-08-04T16:35:55;13.67;;;6.63;;
5989;SDS011;14149;53.562;10.032;2022-08-04T16:38:21;12.33;;;6.07;;
5989;SDS011;14149;53.562;10.032;2022-08-04T16:40:57;13.03;;;6.00;;
5989;SDS011;14149;53.562;10.032;2022-08-04T16:43:27;14.57;;;6.23;;
5989;SDS011;14149;53.562;10.032;2022-08-04T16:45:56;13.03;;;5.93;;
5989;SDS011;14149;53.562;10.032;2022-08-04T16:48:30;13.60;;;5.60;;
5989;SDS011;14149;53.562;10.032;2022-08-04T16:51:04;11.97;;;5.80;;
5989;SDS011;14149;53.562;10.032;2022-08-04T16:53:37;12.47;;;6.07;;
5989;SDS011;14149;53.562;10.032;2022-08-04T16:56:03;16.70;;;5.97;;
5989;SDS011;14149;53.562;10.032;2022-08-04T16:58:31;10.43;;;5.50;;
5989;SDS011;14149;53.562;10.032;2022-08-04T17:00:57;14.30;;;5.30;;
5989;SDS011;14149;53.562;10.032;2022-08-04T17:03:24;11.70;;;5.10;;
5989;SDS011;14149;53.562;10.032;2022-08-04T17:06:03;11.37;;;4.93;;
5989;SDS011;14149;53.562;10.032;2022-08-04T17:08:30;12.40;;;5.33;;
5989;SDS011;14149;53.562;10.032;2022-08-04T17:10:57;11.67;;;5.20;;
5989;SDS011;14149;53.562;10.032;2022-08-04T17:15:54;11.07;;;5.10;;
5989;SDS011;14149;53.562;10.032;2022-08-04T17:18:22;11.73;;;5.37;;
5989;SDS011;14149;53.562;10.032;2022-08-04T17:20:49;11.13;;;5.03;;
5989;SDS011;14149;53.562;10.032;2022-08-04T17:25:58;10.73;;;5.13;;
5989;SDS011;14149;53.562;10.032;2022-08-04T17:28:24;9.20;;;5.40;;
5989;SDS011;14149;53.562;10.032;2022-08-04T17:30:50;11.87;;;5.43;;
5989;SDS011;14149;53.562;10.032;2022-08-04T17:33:17;17.70;;;6.00;;
5989;SDS011;14149;53.562;10.032;2022-08-04T17:35:44;13.80;;;5.47;;
5989;SDS011;14149;53.562;10.032;2022-08-04T17:38:10;14.60;;;5.60;;
5989;SDS011;14149;53.562;10.032;2022-08-04T17:40:49;12.87;;;5.90;;
5989;SDS011;14149;53.562;10.032;2022-08-04T17:43:16;10.37;;;5.30;;
5989;SDS011;14149;53.562;10.032;2022-08-04T17:45:42;12.63;;;5.90;;
5989;SDS011;14149;53.562;10.032;2022-08-04T17:48:16;11.37;;;5.23;;
5989;SDS011;14149;53.562;10.032;2022-08-04T17:50:42;10.80;;;5.40;;
5989;SDS011;14149;53.562;10.032;2022-08-04T17:53:08;13.67;;;5.93;;
5989;SDS011;14149;53.562;10.032;2022-08-04T17:55:38;13.40;;;5.40;;
5989;SDS011;14149;53.562;10.032;2022-08-04T17:58:18;11.73;;;5.40;;
5989;SDS011;14149;53.562;10.032;2022-08-04T18:00:44;14.30;;;5.40;;
5989;SDS011;14149;53.562;10.032;2022-08-04T18:03:20;13.50;;;6.10;;
5989;SDS011;14149;53.562;10.032;2022-08-04T18:05:47;10.17;;;5.07;;
5989;SDS011;14149;53.562;10.032;2022-08-04T18:08:14;13.10;;;5.70;;
5989;SDS011;14149;53.562;10.032;2022-08-04T18:10:42;10.30;;;4.70;;
5989;SDS011;14149;53.562;10.032;2022-08-04T18:13:09;12.63;;;5.70;;
5989;SDS011;14149;53.562;10.032;2022-08-04T18:15:35;13.27;;;6.00;;
5989;SDS011;14149;53.562;10.032;2022-08-04T18:18:14;11.23;;;5.70;;
5989;SDS011;14149;53.562;10.032;2022-08-04T18:20:40;13.43;;;5.70;;
5989;SDS011;14149;53.562;10.032;2022-08-04T18:23:08;14.03;;;6.30;;
5989;SDS011;14149;53.562;10.032;2022-08-04T18:25:35;16.13;;;5.50;;
5989;SDS011;14149;53.562;10.032;2022-08-04T18:28:03;11.33;;;5.80;;
5989;SDS011;14149;53.562;10.032;2022-08-04T18:30:32;11.43;;;5.80;;
5989;SDS011;14149;53.562;10.032;2022-08-04T18:32:58;11.67;;;5.50;;
5989;SDS011;14149;53.562;10.032;2022-08-04T18:35:25;10.93;;;5.37;;
5989;SDS011;14149;53.562;10.032;2022-08-04T18:37:52;14.70;;;6.90;;
5989;SDS011;14149;53.562;10.032;2022-08-04T18:40:19;12.70;;;5.20;;
5989;SDS011;14149;53.562;10.032;2022-08-04T18:42:45;13.63;;;5.03;;
5989;SDS011;14149;53.562;10.032;2022-08-04T18:45:11;13.40;;;5.20;;
5989;SDS011;14149;53.562;10.032;2022-08-04T18:47:38;11.40;;;4.70;;
5989;SDS011;14149;53.562;10.032;2022-08-04T18:50:04;11.17;;;5.03;;
5989;SDS011;14149;53.562;10.032;2022-08-04T18:52:31;10.63;;;4.63;;
5989;SDS011;14149;53.562;10.032;2022-08-04T18:54:57;9.60;;;4.90;;
5989;SDS011;14149;53.562;10.032;2022-08-04T18:57:24;10.90;;;5.13;;
5989;SDS011;14149;53.562;10.032;2022-08-04T18:59:51;11.03;;;5.60;;
5989;SDS011;14149;53.562;10.032;2022-08-04T19:02:19;12.23;;;4.73;;
5989;SDS011;14149;53.562;10.032;2022-08-04T19:04:45;11.30;;;4.63;;
5989;SDS011;14149;53.562;10.032;2022-08-04T19:07:13;13.10;;;4.80;;
5989;SDS011;14149;53.562;10.032;2022-08-04T19:09:40;9.73;;;4.53;;
5989;SDS011;14149;53.562;10.032;2022-08-04T19:12:06;11.00;;;4.50;;
5989;SDS011;14149;53.562;10.032;2022-08-04T19:14:32;9.00;;;4.30;;
5989;SDS011;14149;53.562;10.032;2022-08-04T19:16:58;10.10;;;4.17;;
5989;SDS011;14149;53.562;10.032;2022-08-04T19:19:24;10.60;;;4.57;;
5989;SDS011;14149;53.562;10.032;2022-08-04T19:21:50;14.80;;;4.80;;